sensor_id;sensor_type;location;lat;lon;timestamp;pressure;altitude;pressure_sealevel;temperature;humidity
68366;BME280;55283;51.466;5.478;2023-04-29T00:00:46;101303.34;;;21.78;44.52
68366;BME280;55283;51.466;5.478;2023-04-29T00:03:12;101294.16;;;21.77;44.55
68366;BME280;55283;51.466;5.478;2023-04-29T00:05:37;101305.38;;;21.77;44.58
68366;BME280;55283;51.466;5.478;2023-04-29T00:08:02;101300.19;;;21.76;44.61
68366;BME280;55283;51.466;5.478;2023-04-29T00:10:28;101299.41;;;21.75;44.49
68366;BME280;55283;51.466;5.478;2023-04-29T00:12:54;101294.78;;;21.68;44.61
68366;BME280;55283;51.466;5.478;2023-04-29T00:15:19;101306.25;;;21.74;44.49
68366;BME280;55283;51.466;5.478;2023-04-29T00:17:45;101306.25;;;21.74;44.54
68366;BME280;55283;51.466;5.478;2023-04-29T00:20:11;101314.22;;;21.76;44.45
68366;BME280;55283;51.466;5.478;2023-04-29T00:22:37;101307.81;;;21.75;44.45
68366;BME280;55283;51.466;5.478;2023-04-29T00:25:03;101309.47;;;21.73;44.42
68366;BME280;55283;51.466;5.478;2023-04-29T00:27:30;101316.97;;;21.79;44.20
68366;BME280;55283;51.466;5.478;2023-04-29T00:29:56;101309.59;;;21.69;44.29
68366;BME280;55283;51.466;5.478;2023-04-29T00:32:22;101325.69;;;21.81;44.24
68366;BME280;55283;51.466;5.478;2023-04-29T00:34:47;101319.31;;;21.81;44.32
68366;BME280;55283;51.466;5.478;2023-04-29T00:37:13;101322.56;;;21.79;44.18
68366;BME280;55283;51.466;5.478;2023-04-29T00:39:38;101326.16;;;21.80;44.35
68366;BME280;55283;51.466;5.478;2023-04-29T00:42:03;101324.13;;;21.80;44.24
68366;BME280;55283;51.466;5.478;2023-04-29T00:44:29;101330.19;;;21.79;44.31
68366;BME280;55283;51.466;5.478;2023-04-29T00:46:54;101326.59;;;21.78;44.31
68366;BME280;55283;51.466;5.478;2023-04-29T00:49:20;101329.28;;;21.82;44.13
68366;BME280;55283;51.466;5.478;2023-04-29T00:51:45;101332.56;;;21.80;44.24
68366;BME280;55283;51.466;5.478;2023-04-29T00:54:12;101334.56;;;21.80;44.16
68366;BME280;55283;51.466;5.478;2023-04-29T00:56:38;101334.22;;;21.78;44.13
68366;BME280;55283;51.466;5.478;2023-04-29T00:59:08;101337.03;;;21.78;44.00
68366;BME280;55283;51.466;5.478;2023-04-29T01:01:35;101343.41;;;21.78;44.19
68366;BME280;55283;51.466;5.478;2023-04-29T01:04:01;101336.25;;;21.77;44.13
68366;BME280;55283;51.466;5.478;2023-04-29T01:06:48;101334.69;;;21.76;44.09
68366;BME280;55283;51.466;5.478;2023-04-29T01:15:09;101339.22;;;21.70;44.32
68366;BME280;55283;51.466;5.478;2023-04-29T01:17:51;101341.94;;;21.74;44.23
68366;BME280;55283;51.466;5.478;2023-04-29T01:20:21;101356.41;;;21.72;44.11
68366;BME280;55283;51.466;5.478;2023-04-29T01:22:46;101368.06;;;21.70;44.31
68366;BME280;55283;51.466;5.478;2023-04-29T01:25:13;101365.28;;;21.70;44.30
68366;BME280;55283;51.466;5.478;2023-04-29T01:27:55;101362.00;;;21.72;44.39
68366;BME280;55283;51.466;5.478;2023-04-29T01:33:39;101370.44;;;21.72;44.26
68366;BME280;55283;51.466;5.478;2023-04-29T01:36:18;101373.59;;;21.74;44.20
68366;BME280;55283;51.466;5.478;2023-04-29T01:41:48;101358.16;;;21.66;44.21
68366;BME280;55283;51.466;5.478;2023-04-29T01:44:22;101372.44;;;21.72;44.25
68366;BME280;55283;51.466;5.478;2023-04-29T01:46:50;101371.66;;;21.71;44.28
68366;BME280;55283;51.466;5.478;2023-04-29T01:49:24;101375.25;;;21.72;44.33
68366;BME280;55283;51.466;5.478;2023-04-29T01:51:50;101367.00;;;21.64;44.27
68366;BME280;55283;51.466;5.478;2023-04-29T01:54:16;101375.34;;;21.68;44.18
68366;BME280;55283;51.466;5.478;2023-04-29T01:56:42;101382.53;;;21.69;44.37
68366;BME280;55283;51.466;5.478;2023-04-29T01:59:08;101378.50;;;21.70;44.11
68366;BME280;55283;51.466;5.478;2023-04-29T02:01:33;101378.06;;;21.72;44.09
68366;BME280;55283;51.466;5.478;2023-04-29T02:03:58;101372.59;;;21.64;44.14
68366;BME280;55283;51.466;5.478;2023-04-29T02:06:24;101387.28;;;21.72;44.02
68366;BME280;55283;51.466;5.478;2023-04-29T02:08:50;101381.47;;;21.63;44.35
68366;BME280;55283;51.466;5.478;2023-04-29T02:11:16;101390.94;;;21.69;44.21
68366;BME280;55283;51.466;5.478;2023-04-29T02:13:41;101393.25;;;21.74;44.00
68366;BME280;55283;51.466;5.478;2023-04-29T02:16:08;101391.66;;;21.73;44.08
68366;BME280;55283;51.466;5.478;2023-04-29T02:18:34;101402.53;;;21.71;44.10
68366;BME280;55283;51.466;5.478;2023-04-29T02:20:59;101392.09;;;21.72;43.91
68366;BME280;55283;51.466;5.478;2023-04-29T02:23:28;101390.94;;;21.69;44.19
68366;BME280;55283;51.466;5.478;2023-04-29T02:25:54;101399.00;;;21.67;44.13
68366;BME280;55283;51.466;5.478;2023-04-29T02:28:19;101405.66;;;21.73;43.97
68366;BME280;55283;51.466;5.478;2023-04-29T02:30:45;101404.56;;;21.70;44.05
68366;BME280;55283;51.466;5.478;2023-04-29T02:33:10;101398.31;;;21.63;44.00
68366;BME280;55283;51.466;5.478;2023-04-29T02:35:36;101395.88;;;21.65;44.02
68366;BME280;55283;51.466;5.478;2023-04-29T02:38:02;101410.94;;;21.71;43.82
68366;BME280;55283;51.466;5.478;2023-04-29T02:40:27;101410.59;;;21.69;44.19
68366;BME280;55283;51.466;5.478;2023-04-29T02:42:53;101417.34;;;21.72;44.02
68366;BME280;55283;51.466;5.478;2023-04-29T02:45:19;101418.22;;;21.68;43.98
68366;BME280;55283;51.466;5.478;2023-04-29T02:47:44;101430.22;;;21.69;43.82
68366;BME280;55283;51.466;5.478;2023-04-29T02:50:09;101415.84;;;21.67;43.80
68366;BME280;55283;51.466;5.478;2023-04-29T02:52:35;101431.75;;;21.74;43.81
68366;BME280;55283;51.466;5.478;2023-04-29T02:55:00;101441.38;;;21.73;43.90
68366;BME280;55283;51.466;5.478;2023-04-29T02:57:26;101441.81;;;21.71;44.08
68366;BME280;55283;51.466;5.478;2023-04-29T02:59:53;101447.44;;;21.71;43.94
68366;BME280;55283;51.466;5.478;2023-04-29T03:02:19;101444.63;;;21.71;43.82
68366;BME280;55283;51.466;5.478;2023-04-29T03:04:44;101435.94;;;21.65;43.92
68366;BME280;55283;51.466;5.478;2023-04-29T03:07:09;101439.94;;;21.64;43.79
68366;BME280;55283;51.466;5.478;2023-04-29T03:09:35;101455.41;;;21.73;43.75
68366;BME280;55283;51.466;5.478;2023-04-29T03:12:00;101448.56;;;21.74;43.81
68366;BME280;55283;51.466;5.478;2023-04-29T03:14:27;101436.03;;;21.62;43.90
68366;BME280;55283;51.466;5.478;2023-04-29T03:16:52;101451.09;;;21.68;43.93
68366;BME280;55283;51.466;5.478;2023-04-29T03:19:21;101451.09;;;21.68;43.86
68366;BME280;55283;51.466;5.478;2023-04-29T03:21:46;101449.50;;;21.67;43.59
68366;BME280;55283;51.466;5.478;2023-04-29T03:24:12;101448.81;;;21.63;43.87
68366;BME280;55283;51.466;5.478;2023-04-29T03:26:38;101446.38;;;21.65;43.85
68366;BME280;55283;51.466;5.478;2023-04-29T03:29:03;101447.25;;;21.62;43.84
68366;BME280;55283;51.466;5.478;2023-04-29T03:31:29;101456.00;;;21.64;43.78
68366;BME280;55283;51.466;5.478;2023-04-29T03:33:54;101446.44;;;21.61;43.81
68366;BME280;55283;51.466;5.478;2023-04-29T03:36:19;101465.56;;;21.66;43.75
68366;BME280;55283;51.466;5.478;2023-04-29T03:38:45;101442.06;;;21.60;43.83
68366;BME280;55283;51.466;5.478;2023-04-29T03:41:10;101460.72;;;21.67;43.75
68366;BME280;55283;51.466;5.478;2023-04-29T03:43:36;101466.78;;;21.65;43.92
68366;BME280;55283;51.466;5.478;2023-04-29T03:46:01;101454.06;;;21.61;43.90
68366;BME280;55283;51.466;5.478;2023-04-29T03:48:27;101461.19;;;21.65;44.01
68366;BME280;55283;51.466;5.478;2023-04-29T03:50:52;101468.81;;;21.65;43.86
68366;BME280;55283;51.466;5.478;2023-04-29T03:53:18;101470.81;;;21.64;43.92
68366;BME280;55283;51.466;5.478;2023-04-29T03:55:43;101460.44;;;21.61;43.90
68366;BME280;55283;51.466;5.478;2023-04-29T03:58:09;101472.78;;;21.67;43.75
68366;BME280;55283;51.466;5.478;2023-04-29T04:00:34;101478.81;;;21.66;43.79
68366;BME280;55283;51.466;5.478;2023-04-29T04:03:00;101466.06;;;21.61;43.80
68366;BME280;55283;51.466;5.478;2023-04-29T04:05:25;101479.22;;;21.64;43.85
68366;BME280;55283;51.466;5.478;2023-04-29T04:07:51;101483.25;;;21.63;43.84
68366;BME280;55283;51.466;5.478;2023-04-29T04:10:17;101483.78;;;21.58;43.72
68366;BME280;55283;51.466;5.478;2023-04-29T04:12:43;101490.91;;;21.63;43.64
68366;BME280;55283;51.466;5.478;2023-04-29T04:15:09;101492.84;;;21.66;43.82
68366;BME280;55283;51.466;5.478;2023-04-29T04:17:35;101491.25;;;21.65;43.78
68366;BME280;55283;51.466;5.478;2023-04-29T04:20:00;101497.66;;;21.65;43.78
68366;BME280;55283;51.466;5.478;2023-04-29T04:22:25;101484.91;;;21.61;43.77
68366;BME280;55283;51.466;5.478;2023-04-29T04:24:53;101497.22;;;21.67;43.61
68366;BME280;55283;51.466;5.478;2023-04-29T04:27:19;101497.66;;;21.65;43.79
68366;BME280;55283;51.466;5.478;2023-04-29T04:29:44;101500.88;;;21.64;43.76
68366;BME280;55283;51.466;5.478;2023-04-29T04:32:10;101499.31;;;21.63;43.84
68366;BME280;55283;51.466;5.478;2023-04-29T04:34:35;101499.72;;;21.61;43.88
68366;BME280;55283;51.466;5.478;2023-04-29T04:37:03;101504.56;;;21.61;43.81
68366;BME280;55283;51.466;5.478;2023-04-29T04:39:29;101495.44;;;21.57;43.67
68366;BME280;55283;51.466;5.478;2023-04-29T04:41:54;101507.38;;;21.61;43.77
68366;BME280;55283;51.466;5.478;2023-04-29T04:44:20;101523.00;;;21.62;43.79
68366;BME280;55283;51.466;5.478;2023-04-29T04:46:45;101512.97;;;21.61;43.81
68366;BME280;55283;51.466;5.478;2023-04-29T04:49:11;101525.34;;;21.63;43.76
68366;BME280;55283;51.466;5.478;2023-04-29T04:51:36;101528.53;;;21.65;43.67
68366;BME280;55283;51.466;5.478;2023-04-29T04:54:02;101534.56;;;21.64;43.70
68366;BME280;55283;51.466;5.478;2023-04-29T04:56:27;101538.50;;;21.66;43.60
68366;BME280;55283;51.466;5.478;2023-04-29T04:58:52;101540.16;;;21.64;43.66
68366;BME280;55283;51.466;5.478;2023-04-29T05:01:18;101551.38;;;21.64;43.60
68366;BME280;55283;51.466;5.478;2023-04-29T05:03:43;101546.56;;;21.64;43.65
68366;BME280;55283;51.466;5.478;2023-04-29T05:06:08;101549.38;;;21.64;43.78
68366;BME280;55283;51.466;5.478;2023-04-29T05:08:34;101554.19;;;21.64;43.63
68366;BME280;55283;51.466;5.478;2023-04-29T05:11:00;101555.78;;;21.65;43.65
68366;BME280;55283;51.466;5.478;2023-04-29T05:13:25;101561.03;;;21.63;43.74
68366;BME280;55283;51.466;5.478;2023-04-29T05:15:50;101559.47;;;21.62;43.89
68366;BME280;55283;51.466;5.478;2023-04-29T05:18:16;101568.75;;;21.59;43.87
68366;BME280;55283;51.466;5.478;2023-04-29T05:20:41;101564.25;;;21.61;43.78
68366;BME280;55283;51.466;5.478;2023-04-29T05:23:07;101568.38;;;21.57;43.79
68366;BME280;55283;51.466;5.478;2023-04-29T05:25:33;101570.31;;;21.60;43.78
68366;BME280;55283;51.466;5.478;2023-04-29T05:27:58;101579.88;;;21.62;43.99
68366;BME280;55283;51.466;5.478;2023-04-29T05:30:24;101575.44;;;21.65;43.83
68366;BME280;55283;51.466;5.478;2023-04-29T05:32:49;101581.09;;;21.61;43.89
68366;BME280;55283;51.466;5.478;2023-04-29T05:35:14;101574.84;;;21.54;44.10
68366;BME280;55283;51.466;5.478;2023-04-29T05:37:40;101580.81;;;21.56;44.29
68366;BME280;55283;51.466;5.478;2023-04-29T05:40:06;101581.25;;;21.54;44.44
68366;BME280;55283;51.466;5.478;2023-04-29T05:42:32;101595.66;;;21.56;44.42
68366;BME280;55283;51.466;5.478;2023-04-29T05:44:57;101588.88;;;21.54;44.53
68366;BME280;55283;51.466;5.478;2023-04-29T05:47:22;101602.75;;;21.61;44.86
68366;BME280;55283;51.466;5.478;2023-04-29T05:49:48;101599.38;;;21.69;44.88
68366;BME280;55283;51.466;5.478;2023-04-29T05:52:14;101605.44;;;21.68;44.38
68366;BME280;55283;51.466;5.478;2023-04-29T05:54:39;101602.47;;;21.55;44.78
68366;BME280;55283;51.466;5.478;2023-04-29T05:57:06;101598.09;;;21.54;45.46
68366;BME280;55283;51.466;5.478;2023-04-29T05:59:32;101617.84;;;21.67;45.04
68366;BME280;55283;51.466;5.478;2023-04-29T06:01:58;101617.06;;;21.66;45.24
68366;BME280;55283;51.466;5.478;2023-04-29T06:04:24;101612.97;;;21.71;45.32
68366;BME280;55283;51.466;5.478;2023-04-29T06:06:54;101624.53;;;21.73;45.27
68366;BME280;55283;51.466;5.478;2023-04-29T06:09:21;101625.06;;;21.68;45.22
68366;BME280;55283;51.466;5.478;2023-04-29T06:11:50;101625.56;;;21.63;45.24
68366;BME280;55283;51.466;5.478;2023-04-29T06:14:15;101631.59;;;21.61;45.27
68366;BME280;55283;51.466;5.478;2023-04-29T06:16:40;101610.84;;;21.35;43.88
68366;BME280;55283;51.466;5.478;2023-04-29T06:19:06;101634.88;;;21.36;42.58
68366;BME280;55283;51.466;5.478;2023-04-29T06:21:31;101629.34;;;21.33;42.45
68366;BME280;55283;51.466;5.478;2023-04-29T06:23:57;101645.91;;;21.23;41.19
68366;BME280;55283;51.466;5.478;2023-04-29T06:26:23;101628.53;;;21.09;41.71
68366;BME280;55283;51.466;5.478;2023-04-29T06:28:48;101649.38;;;21.08;40.30
68366;BME280;55283;51.466;5.478;2023-04-29T06:31:14;101655.06;;;21.04;40.13
68366;BME280;55283;51.466;5.478;2023-04-29T06:33:40;101648.34;;;20.98;40.48
68366;BME280;55283;51.466;5.478;2023-04-29T06:36:05;101652.03;;;20.91;40.58
68366;BME280;55283;51.466;5.478;2023-04-29T06:38:30;101660.91;;;20.90;40.29
68366;BME280;55283;51.466;5.478;2023-04-29T06:40:56;101657.78;;;20.84;40.18
68366;BME280;55283;51.466;5.478;2023-04-29T06:43:25;101657.78;;;20.84;40.07
68366;BME280;55283;51.466;5.478;2023-04-29T06:45:51;101667.41;;;20.83;40.22
68366;BME280;55283;51.466;5.478;2023-04-29T06:48:16;101670.63;;;20.82;39.35
68366;BME280;55283;51.466;5.478;2023-04-29T06:50:52;101679.63;;;20.69;39.89
68366;BME280;55283;51.466;5.478;2023-04-29T06:53:18;101684.38;;;20.72;39.21
68366;BME280;55283;51.466;5.478;2023-04-29T06:55:44;101689.59;;;20.70;39.34
68366;BME280;55283;51.466;5.478;2023-04-29T06:58:11;101683.75;;;20.61;39.14
68366;BME280;55283;51.466;5.478;2023-04-29T07:00:37;101694.81;;;20.68;39.02
68366;BME280;55283;51.466;5.478;2023-04-29T07:03:03;101698.91;;;20.64;39.40
68366;BME280;55283;51.466;5.478;2023-04-29T07:05:28;101692.09;;;20.65;39.29
68366;BME280;55283;51.466;5.478;2023-04-29T07:07:53;101695.69;;;20.65;40.13
68366;BME280;55283;51.466;5.478;2023-04-29T07:10:19;101713.06;;;20.80;40.57
68366;BME280;55283;51.466;5.478;2023-04-29T07:12:44;101709.78;;;20.85;40.55
68366;BME280;55283;51.466;5.478;2023-04-29T07:15:10;101703.47;;;20.81;40.38
68366;BME280;55283;51.466;5.478;2023-04-29T07:17:35;101716.94;;;20.90;40.10
68366;BME280;55283;51.466;5.478;2023-04-29T07:20:01;101716.63;;;20.84;39.93
68366;BME280;55283;51.466;5.478;2023-04-29T07:22:26;101718.97;;;20.89;39.93
68366;BME280;55283;51.466;5.478;2023-04-29T07:24:53;101719.75;;;20.90;40.38
68366;BME280;55283;51.466;5.478;2023-04-29T07:27:19;101718.47;;;20.94;40.54
68366;BME280;55283;51.466;5.478;2023-04-29T07:29:44;101725.22;;;20.97;40.36
68366;BME280;55283;51.466;5.478;2023-04-29T07:32:09;101719.16;;;21.02;40.47
68366;BME280;55283;51.466;5.478;2023-04-29T07:34:35;101740.78;;;21.01;40.06
68366;BME280;55283;51.466;5.478;2023-04-29T07:37:00;101732.97;;;20.89;40.07
68366;BME280;55283;51.466;5.478;2023-04-29T07:39:26;101734.50;;;20.94;40.36
68366;BME280;55283;51.466;5.478;2023-04-29T07:41:53;101736.13;;;20.91;40.02
68366;BME280;55283;51.466;5.478;2023-04-29T07:44:18;101726.03;;;20.97;40.35
68366;BME280;55283;51.466;5.478;2023-04-29T07:46:43;101738.38;;;21.03;40.57
68366;BME280;55283;51.466;5.478;2023-04-29T07:49:09;101744.75;;;21.04;40.69
68366;BME280;55283;51.466;5.478;2023-04-29T07:51:34;101746.28;;;21.09;40.68
68366;BME280;55283;51.466;5.478;2023-04-29T07:54:00;101745.94;;;21.07;40.89
68366;BME280;55283;51.466;5.478;2023-04-29T07:56:25;101750.69;;;21.10;40.87
68366;BME280;55283;51.466;5.478;2023-04-29T07:58:50;101754.22;;;21.14;41.04
68366;BME280;55283;51.466;5.478;2023-04-29T08:01:16;101755.41;;;21.16;40.92
68366;BME280;55283;51.466;5.478;2023-04-29T08:03:41;101757.41;;;21.16;41.08
68366;BME280;55283;51.466;5.478;2023-04-29T08:06:07;101742.63;;;21.12;40.97
68366;BME280;55283;51.466;5.478;2023-04-29T08:08:32;101762.25;;;21.15;41.18
68366;BME280;55283;51.466;5.478;2023-04-29T08:10:58;101767.00;;;21.18;41.14
68366;BME280;55283;51.466;5.478;2023-04-29T08:13:24;101761.00;;;21.16;41.34
68366;BME280;55283;51.466;5.478;2023-04-29T08:15:49;101767.34;;;21.20;41.14
68366;BME280;55283;51.466;5.478;2023-04-29T08:18:15;101763.66;;;21.27;41.28
68366;BME280;55283;51.466;5.478;2023-04-29T08:20:40;101764.00;;;21.29;41.23
68366;BME280;55283;51.466;5.478;2023-04-29T08:23:06;101752.53;;;21.20;41.17
68366;BME280;55283;51.466;5.478;2023-04-29T08:25:31;101774.97;;;21.20;41.40
68366;BME280;55283;51.466;5.478;2023-04-29T08:27:57;101759.78;;;21.17;41.43
68366;BME280;55283;51.466;5.478;2023-04-29T08:30:22;101768.50;;;21.23;41.46
68366;BME280;55283;51.466;5.478;2023-04-29T08:32:48;101771.31;;;21.23;41.40
68366;BME280;55283;51.466;5.478;2023-04-29T08:35:15;101766.88;;;21.25;41.57
68366;BME280;55283;51.466;5.478;2023-04-29T08:37:40;101767.31;;;21.24;41.69
68366;BME280;55283;51.466;5.478;2023-04-29T08:40:07;101769.25;;;21.27;42.00
68366;BME280;55283;51.466;5.478;2023-04-29T08:42:36;101766.78;;;21.33;41.73
68366;BME280;55283;51.466;5.478;2023-04-29T08:45:02;101772.38;;;21.33;41.87
68366;BME280;55283;51.466;5.478;2023-04-29T08:47:35;101779.13;;;21.35;42.08
68366;BME280;55283;51.466;5.478;2023-04-29T08:50:04;101775.97;;;21.33;41.94
68366;BME280;55283;51.466;5.478;2023-04-29T08:52:33;101767.34;;;21.20;41.88
68366;BME280;55283;51.466;5.478;2023-04-29T08:55:00;101775.97;;;21.33;41.50
68366;BME280;55283;51.466;5.478;2023-04-29T08:57:35;101774.34;;;21.36;41.54
68366;BME280;55283;51.466;5.478;2023-04-29T09:00:06;101781.47;;;21.40;41.62
68366;BME280;55283;51.466;5.478;2023-04-29T09:02:34;101775.84;;;21.40;41.57
68366;BME280;55283;51.466;5.478;2023-04-29T09:05:08;101777.78;;;21.43;41.83
68366;BME280;55283;51.466;5.478;2023-04-29T09:07:36;101782.25;;;21.41;41.77
68366;BME280;55283;51.466;5.478;2023-04-29T09:10:03;101779.88;;;21.39;41.89
68366;BME280;55283;51.466;5.478;2023-04-29T09:12:29;101788.16;;;21.46;41.65
68366;BME280;55283;51.466;5.478;2023-04-29T09:14:55;101790.19;;;21.46;41.82
68366;BME280;55283;51.466;5.478;2023-04-29T09:17:43;101790.13;;;21.50;41.85
68366;BME280;55283;51.466;5.478;2023-04-29T09:22:53;101786.13;;;21.51;41.91
68366;BME280;55283;51.466;5.478;2023-04-29T09:25:19;101793.28;;;21.52;41.92
68366;BME280;55283;51.466;5.478;2023-04-29T09:27:45;101788.91;;;21.51;41.88
68366;BME280;55283;51.466;5.478;2023-04-29T09:30:11;101791.72;;;21.51;41.93
68366;BME280;55283;51.466;5.478;2023-04-29T09:32:37;101792.13;;;21.49;41.83
68366;BME280;55283;51.466;5.478;2023-04-29T09:35:35;101805.63;;;21.58;41.86
68366;BME280;55283;51.466;5.478;2023-04-29T09:38:12;101805.69;;;21.54;42.01
68366;BME280;55283;51.466;5.478;2023-04-29T09:40:39;101801.66;;;21.55;42.00
68366;BME280;55283;51.466;5.478;2023-04-29T09:43:15;101806.47;;;21.55;41.94
68366;BME280;55283;51.466;5.478;2023-04-29T09:45:45;101796.47;;;21.54;42.17
68366;BME280;55283;51.466;5.478;2023-04-29T09:48:11;101808.00;;;21.59;41.97
68366;BME280;55283;51.466;5.478;2023-04-29T09:50:37;101802.09;;;21.54;42.16
68366;BME280;55283;51.466;5.478;2023-04-29T09:53:04;101815.81;;;21.48;42.23
68366;BME280;55283;51.466;5.478;2023-04-29T09:55:33;101818.16;;;21.50;42.72
68366;BME280;55283;51.466;5.478;2023-04-29T09:57:58;101812.47;;;21.57;42.45
68366;BME280;55283;51.466;5.478;2023-04-29T10:00:29;101819.16;;;21.63;42.50
68366;BME280;55283;51.466;5.478;2023-04-29T10:02:58;101819.16;;;21.63;42.31
68366;BME280;55283;51.466;5.478;2023-04-29T10:05:27;101812.88;;;21.55;42.49
68366;BME280;55283;51.466;5.478;2023-04-29T10:07:54;101822.06;;;21.56;42.58
68366;BME280;55283;51.466;5.478;2023-04-29T10:10:21;101824.78;;;21.63;42.51
68366;BME280;55283;51.466;5.478;2023-04-29T10:12:52;101827.69;;;21.56;42.78
68366;BME280;55283;51.466;5.478;2023-04-29T10:15:38;101830.88;;;21.58;42.96
68366;BME280;55283;51.466;5.478;2023-04-29T10:18:20;101820.09;;;21.56;42.93
68366;BME280;55283;51.466;5.478;2023-04-29T10:20:47;101832.75;;;21.64;42.74
68366;BME280;55283;51.466;5.478;2023-04-29T10:23:14;101821.66;;;21.57;42.65
68366;BME280;55283;51.466;5.478;2023-04-29T10:25:43;101831.25;;;21.60;43.06
68366;BME280;55283;51.466;5.478;2023-04-29T10:28:12;101826.00;;;21.62;43.09
68366;BME280;55283;51.466;5.478;2023-04-29T10:30:43;101834.28;;;21.69;42.91
68366;BME280;55283;51.466;5.478;2023-04-29T10:33:10;101836.72;;;21.67;43.17
68366;BME280;55283;51.466;5.478;2023-04-29T10:35:36;101835.84;;;21.74;42.78
68366;BME280;55283;51.466;5.478;2023-04-29T10:40:46;101837.81;;;21.73;43.17
68366;BME280;55283;51.466;5.478;2023-04-29T10:43:13;101817.59;;;21.62;41.93
68366;BME280;55283;51.466;5.478;2023-04-29T10:45:39;101839.06;;;21.72;42.18
68366;BME280;55283;51.466;5.478;2023-04-29T10:48:12;101837.41;;;21.75;42.35
68366;BME280;55283;51.466;5.478;2023-04-29T10:53:13;101839.75;;;21.80;42.30
68366;BME280;55283;51.466;5.478;2023-04-29T10:55:39;101834.19;;;21.76;42.21
68366;BME280;55283;51.466;5.478;2023-04-29T10:58:35;101842.53;;;21.80;41.68
68366;BME280;55283;51.466;5.478;2023-04-29T11:01:01;101837.47;;;21.71;41.83
68366;BME280;55283;51.466;5.478;2023-04-29T11:03:50;101840.53;;;21.80;41.83
68366;BME280;55283;51.466;5.478;2023-04-29T11:06:22;101842.47;;;21.83;41.72
68366;BME280;55283;51.466;5.478;2023-04-29T11:09:08;101835.38;;;21.75;42.17
68366;BME280;55283;51.466;5.478;2023-04-29T11:11:48;101851.38;;;21.78;41.84
68366;BME280;55283;51.466;5.478;2023-04-29T11:14:23;101846.13;;;21.80;42.03
68366;BME280;55283;51.466;5.478;2023-04-29T11:16:55;101858.94;;;21.81;42.08
68366;BME280;55283;51.466;5.478;2023-04-29T11:19:23;101843.75;;;21.79;42.11
68366;BME280;55283;51.466;5.478;2023-04-29T11:22:03;101854.13;;;21.82;42.12
68366;BME280;55283;51.466;5.478;2023-04-29T11:24:33;101848.94;;;21.80;42.14
68366;BME280;55283;51.466;5.478;2023-04-29T11:27:01;101848.88;;;21.84;42.14
68366;BME280;55283;51.466;5.478;2023-04-29T11:29:31;101850.53;;;21.81;42.20
68366;BME280;55283;51.466;5.478;2023-04-29T11:32:06;101847.78;;;21.78;42.21
68366;BME280;55283;51.466;5.478;2023-04-29T11:34:32;101854.19;;;21.78;42.23
68366;BME280;55283;51.466;5.478;2023-04-29T11:36:57;101848.22;;;21.76;42.48
68366;BME280;55283;51.466;5.478;2023-04-29T11:39:22;101842.31;;;21.70;42.64
68366;BME280;55283;51.466;5.478;2023-04-29T11:41:48;101852.59;;;21.77;42.49
68366;BME280;55283;51.466;5.478;2023-04-29T11:44:14;101859.06;;;21.74;42.61
68366;BME280;55283;51.466;5.478;2023-04-29T11:46:39;101860.28;;;21.73;42.70
68366;BME280;55283;51.466;5.478;2023-04-29T11:49:05;101861.09;;;21.74;42.78
68366;BME280;55283;51.466;5.478;2023-04-29T11:51:30;101853.47;;;21.74;42.92
68366;BME280;55283;51.466;5.478;2023-04-29T11:53:56;101852.22;;;21.75;42.83
68366;BME280;55283;51.466;5.478;2023-04-29T11:56:22;101854.94;;;21.82;42.60
68366;BME280;55283;51.466;5.478;2023-04-29T11:58:53;101853.41;;;21.78;42.74
68366;BME280;55283;51.466;5.478;2023-04-29T12:01:20;101859.78;;;21.78;42.53
68366;BME280;55283;51.466;5.478;2023-04-29T12:03:47;101858.53;;;21.83;42.52
68366;BME280;55283;51.466;5.478;2023-04-29T12:06:13;101867.66;;;21.87;42.70
68366;BME280;55283;51.466;5.478;2023-04-29T12:08:39;101858.03;;;21.88;42.51
68366;BME280;55283;51.466;5.478;2023-04-29T12:11:06;101858.41;;;21.90;42.77
68366;BME280;55283;51.466;5.478;2023-04-29T12:13:32;101839.66;;;21.83;42.52
68366;BME280;55283;51.466;5.478;2023-04-29T12:16:01;101857.22;;;21.91;42.46
68366;BME280;55283;51.466;5.478;2023-04-29T12:18:27;101854.41;;;21.91;42.56
68366;BME280;55283;51.466;5.478;2023-04-29T12:20:53;101844.91;;;21.81;42.76
68366;BME280;55283;51.466;5.478;2023-04-29T12:23:22;101855.66;;;21.86;42.71
68366;BME280;55283;51.466;5.478;2023-04-29T12:25:55;101845.22;;;21.87;42.71
68366;BME280;55283;51.466;5.478;2023-04-29T12:28:21;101853.97;;;21.92;42.61
68366;BME280;55283;51.466;5.478;2023-04-29T12:30:49;101857.56;;;21.93;42.61
68366;BME280;55283;51.466;5.478;2023-04-29T12:33:23;101865.94;;;21.97;42.44
68366;BME280;55283;51.466;5.478;2023-04-29T12:35:50;101853.50;;;21.98;42.46
68366;BME280;55283;51.466;5.478;2023-04-29T12:38:29;101849.94;;;21.93;42.47
68366;BME280;55283;51.466;5.478;2023-04-29T12:40:57;101855.00;;;22.02;42.55
68366;BME280;55283;51.466;5.478;2023-04-29T12:43:30;101849.09;;;21.97;42.59
68366;BME280;55283;51.466;5.478;2023-04-29T12:46:05;101855.44;;;22.01;42.64
68366;BME280;55283;51.466;5.478;2023-04-29T12:48:33;101864.28;;;21.99;42.61
68366;BME280;55283;51.466;5.478;2023-04-29T12:50:59;101856.03;;;21.88;42.94
68366;BME280;55283;51.466;5.478;2023-04-29T12:53:26;101866.75;;;21.97;42.88
68366;BME280;55283;51.466;5.478;2023-04-29T12:55:52;101872.69;;;21.99;42.65
68366;BME280;55283;51.466;5.478;2023-04-29T12:58:18;101865.13;;;21.96;42.73
68366;BME280;55283;51.466;5.478;2023-04-29T13:00:44;101861.16;;;21.93;42.97
68366;BME280;55283;51.466;5.478;2023-04-29T13:03:09;101860.34;;;21.97;42.73
68366;BME280;55283;51.466;5.478;2023-04-29T13:05:35;101861.06;;;22.01;42.68
68366;BME280;55283;51.466;5.478;2023-04-29T13:08:00;101869.03;;;22.02;43.10
68366;BME280;55283;51.466;5.478;2023-04-29T13:10:26;101869.41;;;22.04;42.95